Airfield :
LOGIN :

Register | Disclaimer

   EN    FR    IT 

 










Legend :    VFR   Marginal VFR   IFR   Intensive IFR   Very Intensive IFR
Visi :
Ceiling :
>= 8 km
>= 3000ft
5 to 8 km
1000 to 3000 ft
1500m to 5 km
500 to 1000 ft
800 to 1500m
200 to 500 ft
< 800m
< 200 ft
Symbols :   Thunderstorms  Fog  Heavy snow  Heavy precipitations  Wind > 20 kt
SIGMETs :     Misc.  Thunderstorms  Icing  Turbulence  Mountain Waves  Volcanic Ashes







- Airport Elevation : 1197 ft
- IATA code : SPM


ETAD - Spangdahlem Ab

CURRENT METAR :
  • 161556Z AUTO 05003KT 9999 CLR 20/08 A3008 RMK AO2 SLP174 T01980078 $

EXPIRED METARs :
  • 161456Z AUTO 05007KT 9999 CLR 22/08 A3009 RMK AO2 SLP176 T02240078 55002 $
  • 161356Z AUTO 06007KT 9999 CLR 22/07 A3009 RMK AO2 SLP174 T02220068 $

TAF TAF ETAD
Valid from the 16 at 12:00 until the 17 at 18:00 UTC


161206Z 1612/1718 VRB06KT 9999 FEW150 QNH3008INS
BECMG 1623/1624 VRB06KT 6000 BR FEW100 QNH3012INS
BECMG 1708/1709 VRB06KT 9999 NSW SKC QNH3014INS TX25/1614Z TN03/1704Z
No reported NOTAMs for that airfield.



MET'MAP, your aeronautical weather chart ! - Copyright ORBIFLY December 2007 - Disclaimer

ORBIFLY MET'MAP TEAM :

Programming & Development : Alexandra Zaïnal
Concept & Development : Baudouin d'Aumeries
Co-Development & Prog : Marc-Olivier Méhu
Technical & hardware support : Manuel Goepfert

Contact : metmap@orbifly.com




SOURCES & CREDITS :

   NOAA